sensor_id;sensor_type;location;lat;lon;timestamp;P1;durP1;ratioP1;P2;durP2;ratioP2
20411;SDS011;10365;52.578;8.138;2023-03-14T00:01:24;9.65;;;3.90;;
20411;SDS011;10365;52.578;8.138;2023-03-14T00:03:55;14.45;;;4.00;;
20411;SDS011;10365;52.578;8.138;2023-03-14T00:06:25;10.80;;;3.38;;
20411;SDS011;10365;52.578;8.138;2023-03-14T00:08:56;13.57;;;4.05;;
20411;SDS011;10365;52.578;8.138;2023-03-14T00:11:33;14.95;;;4.22;;
20411;SDS011;10365;52.578;8.138;2023-03-14T00:14:11;9.48;;;4.45;;
20411;SDS011;10365;52.578;8.138;2023-03-14T00:16:49;12.23;;;4.30;;
20411;SDS011;10365;52.578;8.138;2023-03-14T00:19:23;13.70;;;4.05;;
20411;SDS011;10365;52.578;8.138;2023-03-14T00:21:59;9.55;;;3.78;;
20411;SDS011;10365;52.578;8.138;2023-03-14T00:24:34;10.68;;;4.18;;
20411;SDS011;10365;52.578;8.138;2023-03-14T00:27:11;18.30;;;5.30;;
20411;SDS011;10365;52.578;8.138;2023-03-14T00:29:46;15.10;;;4.78;;
20411;SDS011;10365;52.578;8.138;2023-03-14T00:32:14;17.30;;;4.43;;
20411;SDS011;10365;52.578;8.138;2023-03-14T00:35:06;13.60;;;4.45;;
20411;SDS011;10365;52.578;8.138;2023-03-14T00:37:36;15.75;;;4.80;;
20411;SDS011;10365;52.578;8.138;2023-03-14T00:40:11;17.38;;;4.78;;
20411;SDS011;10365;52.578;8.138;2023-03-14T00:42:37;15.90;;;5.18;;
20411;SDS011;10365;52.578;8.138;2023-03-14T00:45:11;17.70;;;5.07;;
20411;SDS011;10365;52.578;8.138;2023-03-14T00:47:49;12.18;;;5.45;;
20411;SDS011;10365;52.578;8.138;2023-03-14T00:50:36;15.82;;;5.60;;
20411;SDS011;10365;52.578;8.138;2023-03-14T00:56:01;19.73;;;5.55;;
20411;SDS011;10365;52.578;8.138;2023-03-14T00:58:30;16.50;;;6.50;;
20411;SDS011;10365;52.578;8.138;2023-03-14T01:04:05;16.95;;;5.50;;
20411;SDS011;10365;52.578;8.138;2023-03-14T01:06:35;14.02;;;5.40;;
20411;SDS011;10365;52.578;8.138;2023-03-14T01:09:15;13.85;;;4.68;;
20411;SDS011;10365;52.578;8.138;2023-03-14T01:11:49;10.85;;;5.07;;
20411;SDS011;10365;52.578;8.138;2023-03-14T01:14:26;11.63;;;5.15;;
20411;SDS011;10365;52.578;8.138;2023-03-14T01:16:56;9.45;;;4.55;;
20411;SDS011;10365;52.578;8.138;2023-03-14T01:19:29;7.40;;;4.25;;
20411;SDS011;10365;52.578;8.138;2023-03-14T01:22:17;9.05;;;3.83;;
20411;SDS011;10365;52.578;8.138;2023-03-14T01:27:28;11.82;;;4.13;;
20411;SDS011;10365;52.578;8.138;2023-03-14T01:29:57;9.27;;;3.28;;
20411;SDS011;10365;52.578;8.138;2023-03-14T01:32:23;13.25;;;3.50;;
20411;SDS011;10365;52.578;8.138;2023-03-14T01:34:52;7.63;;;3.30;;
20411;SDS011;10365;52.578;8.138;2023-03-14T01:37:21;12.32;;;3.10;;
20411;SDS011;10365;52.578;8.138;2023-03-14T01:39:55;13.48;;;2.92;;
20411;SDS011;10365;52.578;8.138;2023-03-14T01:42:37;7.25;;;2.53;;
20411;SDS011;10365;52.578;8.138;2023-03-14T01:48:09;8.55;;;2.30;;
20411;SDS011;10365;52.578;8.138;2023-03-14T01:50:37;8.25;;;2.30;;
20411;SDS011;10365;52.578;8.138;2023-03-14T01:53:06;10.57;;;2.20;;
20411;SDS011;10365;52.578;8.138;2023-03-14T01:55:38;10.98;;;3.70;;
20411;SDS011;10365;52.578;8.138;2023-03-14T01:58:15;9.93;;;2.55;;
20411;SDS011;10365;52.578;8.138;2023-03-14T02:00:46;9.65;;;2.30;;
20411;SDS011;10365;52.578;8.138;2023-03-14T02:03:22;11.18;;;2.25;;
20411;SDS011;10365;52.578;8.138;2023-03-14T02:05:52;10.32;;;2.40;;
20411;SDS011;10365;52.578;8.138;2023-03-14T02:08:24;9.48;;;2.55;;
20411;SDS011;10365;52.578;8.138;2023-03-14T02:10:53;8.43;;;1.85;;
20411;SDS011;10365;52.578;8.138;2023-03-14T02:13:34;8.85;;;1.70;;
20411;SDS011;10365;52.578;8.138;2023-03-14T02:16:21;10.68;;;2.13;;
20411;SDS011;10365;52.578;8.138;2023-03-14T02:22:29;6.28;;;1.98;;
20411;SDS011;10365;52.578;8.138;2023-03-14T02:27:38;7.45;;;2.10;;
20411;SDS011;10365;52.578;8.138;2023-03-14T02:30:10;13.98;;;2.55;;
20411;SDS011;10365;52.578;8.138;2023-03-14T02:33:12;8.43;;;2.75;;
20411;SDS011;10365;52.578;8.138;2023-03-14T02:38:36;7.43;;;2.13;;
20411;SDS011;10365;52.578;8.138;2023-03-14T02:41:05;8.02;;;2.42;;
20411;SDS011;10365;52.578;8.138;2023-03-14T02:43:55;7.13;;;2.33;;
20411;SDS011;10365;52.578;8.138;2023-03-14T02:46:29;6.95;;;2.47;;
20411;SDS011;10365;52.578;8.138;2023-03-14T02:49:01;6.05;;;2.03;;
20411;SDS011;10365;52.578;8.138;2023-03-14T02:51:38;7.65;;;2.10;;
20411;SDS011;10365;52.578;8.138;2023-03-14T02:54:11;7.63;;;2.42;;
20411;SDS011;10365;52.578;8.138;2023-03-14T02:56:43;13.35;;;2.70;;
20411;SDS011;10365;52.578;8.138;2023-03-14T02:59:14;5.50;;;2.72;;
20411;SDS011;10365;52.578;8.138;2023-03-14T03:01:53;9.10;;;3.00;;
20411;SDS011;10365;52.578;8.138;2023-03-14T03:04:32;12.05;;;4.13;;
20411;SDS011;10365;52.578;8.138;2023-03-14T03:07:17;9.68;;;3.42;;
20411;SDS011;10365;52.578;8.138;2023-03-14T03:09:55;10.68;;;3.53;;
20411;SDS011;10365;52.578;8.138;2023-03-14T03:12:31;8.35;;;3.35;;
20411;SDS011;10365;52.578;8.138;2023-03-14T03:15:04;12.30;;;4.10;;
20411;SDS011;10365;52.578;8.138;2023-03-14T03:17:46;11.43;;;3.75;;
20411;SDS011;10365;52.578;8.138;2023-03-14T03:20:12;11.52;;;3.80;;
20411;SDS011;10365;52.578;8.138;2023-03-14T03:25:25;10.18;;;3.05;;
20411;SDS011;10365;52.578;8.138;2023-03-14T03:28:02;14.95;;;3.53;;
20411;SDS011;10365;52.578;8.138;2023-03-14T03:30:45;12.10;;;3.53;;
20411;SDS011;10365;52.578;8.138;2023-03-14T03:33:24;8.57;;;3.35;;
20411;SDS011;10365;52.578;8.138;2023-03-14T03:35:58;16.02;;;3.13;;
20411;SDS011;10365;52.578;8.138;2023-03-14T03:38:31;11.85;;;3.35;;
20411;SDS011;10365;52.578;8.138;2023-03-14T03:41:06;10.95;;;2.92;;
20411;SDS011;10365;52.578;8.138;2023-03-14T03:43:40;8.73;;;2.80;;
20411;SDS011;10365;52.578;8.138;2023-03-14T03:46:10;9.65;;;2.55;;
20411;SDS011;10365;52.578;8.138;2023-03-14T03:48:59;6.00;;;2.63;;
20411;SDS011;10365;52.578;8.138;2023-03-14T03:51:40;6.72;;;3.15;;
20411;SDS011;10365;52.578;8.138;2023-03-14T03:54:15;10.48;;;3.00;;
20411;SDS011;10365;52.578;8.138;2023-03-14T03:57:01;12.40;;;2.80;;
20411;SDS011;10365;52.578;8.138;2023-03-14T03:59:55;9.63;;;2.70;;
20411;SDS011;10365;52.578;8.138;2023-03-14T04:05:27;9.43;;;2.42;;
20411;SDS011;10365;52.578;8.138;2023-03-14T04:08:03;14.13;;;2.10;;
20411;SDS011;10365;52.578;8.138;2023-03-14T04:10:37;11.65;;;2.28;;
20411;SDS011;10365;52.578;8.138;2023-03-14T04:13:23;13.38;;;2.65;;
20411;SDS011;10365;52.578;8.138;2023-03-14T04:15:55;5.22;;;2.13;;
20411;SDS011;10365;52.578;8.138;2023-03-14T04:18:26;7.75;;;1.63;;
20411;SDS011;10365;52.578;8.138;2023-03-14T04:20:55;8.32;;;1.83;;
20411;SDS011;10365;52.578;8.138;2023-03-14T04:23:38;10.00;;;2.03;;
20411;SDS011;10365;52.578;8.138;2023-03-14T04:26:20;10.88;;;1.77;;
20411;SDS011;10365;52.578;8.138;2023-03-14T04:29:04;11.10;;;2.33;;
20411;SDS011;10365;52.578;8.138;2023-03-14T04:31:46;8.27;;;2.05;;
20411;SDS011;10365;52.578;8.138;2023-03-14T04:34:19;10.05;;;2.10;;
20411;SDS011;10365;52.578;8.138;2023-03-14T04:36:51;9.20;;;2.38;;
20411;SDS011;10365;52.578;8.138;2023-03-14T04:39:22;15.50;;;2.70;;
20411;SDS011;10365;52.578;8.138;2023-03-14T04:42:02;8.55;;;2.50;;
20411;SDS011;10365;52.578;8.138;2023-03-14T04:44:28;11.32;;;3.30;;
20411;SDS011;10365;52.578;8.138;2023-03-14T04:47:04;13.32;;;2.92;;
20411;SDS011;10365;52.578;8.138;2023-03-14T04:49:36;4.13;;;1.42;;
20411;SDS011;10365;52.578;8.138;2023-03-14T04:52:12;6.40;;;1.40;;
20411;SDS011;10365;52.578;8.138;2023-03-14T04:54:47;7.50;;;1.33;;
20411;SDS011;10365;52.578;8.138;2023-03-14T04:57:36;6.82;;;2.10;;
20411;SDS011;10365;52.578;8.138;2023-03-14T05:00:13;3.50;;;1.50;;
20411;SDS011;10365;52.578;8.138;2023-03-14T05:03:14;5.72;;;2.20;;
20411;SDS011;10365;52.578;8.138;2023-03-14T05:06:12;5.93;;;1.55;;
20411;SDS011;10365;52.578;8.138;2023-03-14T05:08:59;4.85;;;1.20;;
20411;SDS011;10365;52.578;8.138;2023-03-14T05:11:42;5.93;;;1.40;;
20411;SDS011;10365;52.578;8.138;2023-03-14T05:14:36;6.03;;;2.10;;
20411;SDS011;10365;52.578;8.138;2023-03-14T05:17:16;12.25;;;2.65;;
20411;SDS011;10365;52.578;8.138;2023-03-14T05:20:07;14.38;;;2.78;;
20411;SDS011;10365;52.578;8.138;2023-03-14T05:22:53;12.23;;;2.50;;
20411;SDS011;10365;52.578;8.138;2023-03-14T05:25:42;13.48;;;2.88;;
20411;SDS011;10365;52.578;8.138;2023-03-14T05:28:36;10.75;;;2.78;;
20411;SDS011;10365;52.578;8.138;2023-03-14T05:31:31;7.25;;;2.75;;
20411;SDS011;10365;52.578;8.138;2023-03-14T05:34:22;11.63;;;3.25;;
20411;SDS011;10365;52.578;8.138;2023-03-14T05:37:25;8.95;;;2.50;;
20411;SDS011;10365;52.578;8.138;2023-03-14T05:40:18;10.00;;;2.80;;
20411;SDS011;10365;52.578;8.138;2023-03-14T05:43:07;12.40;;;2.58;;
20411;SDS011;10365;52.578;8.138;2023-03-14T05:45:51;4.13;;;2.30;;
20411;SDS011;10365;52.578;8.138;2023-03-14T05:48:43;11.43;;;2.88;;
20411;SDS011;10365;52.578;8.138;2023-03-14T05:51:34;14.07;;;2.65;;
20411;SDS011;10365;52.578;8.138;2023-03-14T05:54:28;15.35;;;2.70;;
20411;SDS011;10365;52.578;8.138;2023-03-14T05:57:28;12.18;;;2.58;;
20411;SDS011;10365;52.578;8.138;2023-03-14T06:00:28;18.40;;;2.50;;
20411;SDS011;10365;52.578;8.138;2023-03-14T06:03:22;15.13;;;3.45;;
20411;SDS011;10365;52.578;8.138;2023-03-14T06:05:51;16.55;;;2.92;;
20411;SDS011;10365;52.578;8.138;2023-03-14T06:08:21;12.80;;;2.75;;
20411;SDS011;10365;52.578;8.138;2023-03-14T06:10:53;11.45;;;2.60;;
20411;SDS011;10365;52.578;8.138;2023-03-14T06:13:24;13.85;;;3.33;;
20411;SDS011;10365;52.578;8.138;2023-03-14T06:15:55;9.43;;;2.90;;
20411;SDS011;10365;52.578;8.138;2023-03-14T06:18:27;8.65;;;3.35;;
20411;SDS011;10365;52.578;8.138;2023-03-14T06:21:16;11.30;;;3.38;;
20411;SDS011;10365;52.578;8.138;2023-03-14T06:23:49;13.77;;;3.50;;
20411;SDS011;10365;52.578;8.138;2023-03-14T06:26:29;11.48;;;3.50;;
20411;SDS011;10365;52.578;8.138;2023-03-14T06:29:12;14.57;;;4.35;;
20411;SDS011;10365;52.578;8.138;2023-03-14T06:31:47;14.48;;;4.35;;
20411;SDS011;10365;52.578;8.138;2023-03-14T06:34:19;10.70;;;3.80;;
20411;SDS011;10365;52.578;8.138;2023-03-14T06:36:53;18.20;;;3.83;;
20411;SDS011;10365;52.578;8.138;2023-03-14T06:39:25;14.57;;;4.20;;
20411;SDS011;10365;52.578;8.138;2023-03-14T06:42:07;20.23;;;3.83;;
20411;SDS011;10365;52.578;8.138;2023-03-14T06:44:36;11.43;;;3.70;;
20411;SDS011;10365;52.578;8.138;2023-03-14T06:47:03;15.95;;;3.97;;
20411;SDS011;10365;52.578;8.138;2023-03-14T06:49:39;11.85;;;3.40;;
20411;SDS011;10365;52.578;8.138;2023-03-14T06:52:07;14.73;;;3.30;;
20411;SDS011;10365;52.578;8.138;2023-03-14T06:54:35;15.38;;;3.90;;
20411;SDS011;10365;52.578;8.138;2023-03-14T06:57:10;18.77;;;4.60;;
20411;SDS011;10365;52.578;8.138;2023-03-14T06:59:37;13.38;;;3.53;;
20411;SDS011;10365;52.578;8.138;2023-03-14T07:02:17;13.68;;;4.20;;
20411;SDS011;10365;52.578;8.138;2023-03-14T07:04:46;14.38;;;4.82;;
20411;SDS011;10365;52.578;8.138;2023-03-14T07:07:21;11.35;;;4.03;;
20411;SDS011;10365;52.578;8.138;2023-03-14T07:10:12;15.38;;;4.07;;
20411;SDS011;10365;52.578;8.138;2023-03-14T07:12:41;10.27;;;3.60;;
20411;SDS011;10365;52.578;8.138;2023-03-14T07:15:06;19.25;;;4.43;;
20411;SDS011;10365;52.578;8.138;2023-03-14T07:17:33;9.20;;;4.05;;
20411;SDS011;10365;52.578;8.138;2023-03-14T07:20:05;10.52;;;3.65;;
20411;SDS011;10365;52.578;8.138;2023-03-14T07:22:34;14.52;;;3.83;;
20411;SDS011;10365;52.578;8.138;2023-03-14T07:25:07;13.15;;;3.65;;
20411;SDS011;10365;52.578;8.138;2023-03-14T07:27:40;7.47;;;3.17;;
20411;SDS011;10365;52.578;8.138;2023-03-14T07:30:16;7.28;;;3.17;;
20411;SDS011;10365;52.578;8.138;2023-03-14T07:32:49;11.85;;;3.35;;
20411;SDS011;10365;52.578;8.138;2023-03-14T07:35:14;7.40;;;2.75;;
20411;SDS011;10365;52.578;8.138;2023-03-14T07:38:04;8.88;;;2.30;;
20411;SDS011;10365;52.578;8.138;2023-03-14T07:41:14;10.70;;;2.85;;
20411;SDS011;10365;52.578;8.138;2023-03-14T07:44:12;8.98;;;2.38;;
20411;SDS011;10365;52.578;8.138;2023-03-14T07:46:37;3.70;;;1.38;;
20411;SDS011;10365;52.578;8.138;2023-03-14T07:49:05;5.97;;;1.48;;
20411;SDS011;10365;52.578;8.138;2023-03-14T07:51:34;4.93;;;1.00;;
20411;SDS011;10365;52.578;8.138;2023-03-14T07:54:27;7.38;;;1.50;;
20411;SDS011;10365;52.578;8.138;2023-03-14T07:56:53;7.18;;;1.42;;
20411;SDS011;10365;52.578;8.138;2023-03-14T07:59:18;3.38;;;1.30;;
20411;SDS011;10365;52.578;8.138;2023-03-14T08:01:44;5.40;;;1.20;;
20411;SDS011;10365;52.578;8.138;2023-03-14T08:04:09;4.80;;;1.15;;
20411;SDS011;10365;52.578;8.138;2023-03-14T08:06:35;3.72;;;0.75;;
20411;SDS011;10365;52.578;8.138;2023-03-14T08:09:00;2.35;;;0.95;;
20411;SDS011;10365;52.578;8.138;2023-03-14T08:11:26;5.15;;;0.95;;
20411;SDS011;10365;52.578;8.138;2023-03-14T08:13:51;3.53;;;1.00;;
20411;SDS011;10365;52.578;8.138;2023-03-14T08:16:17;3.08;;;0.82;;
20411;SDS011;10365;52.578;8.138;2023-03-14T08:18:43;3.88;;;1.45;;
20411;SDS011;10365;52.578;8.138;2023-03-14T08:21:08;3.50;;;1.02;;
20411;SDS011;10365;52.578;8.138;2023-03-14T08:23:33;3.67;;;0.80;;
20411;SDS011;10365;52.578;8.138;2023-03-14T08:25:59;5.10;;;1.00;;
20411;SDS011;10365;52.578;8.138;2023-03-14T08:28:24;3.33;;;0.90;;
20411;SDS011;10365;52.578;8.138;2023-03-14T08:30:55;3.15;;;1.10;;
20411;SDS011;10365;52.578;8.138;2023-03-14T08:33:21;2.00;;;0.85;;
20411;SDS011;10365;52.578;8.138;2023-03-14T08:35:46;5.47;;;0.80;;
20411;SDS011;10365;52.578;8.138;2023-03-14T08:38:11;3.47;;;1.20;;
20411;SDS011;10365;52.578;8.138;2023-03-14T08:40:37;4.85;;;1.25;;
20411;SDS011;10365;52.578;8.138;2023-03-14T08:43:02;5.40;;;1.30;;
20411;SDS011;10365;52.578;8.138;2023-03-14T08:45:27;3.95;;;1.45;;
20411;SDS011;10365;52.578;8.138;2023-03-14T08:47:53;2.85;;;1.05;;
20411;SDS011;10365;52.578;8.138;2023-03-14T08:50:18;2.88;;;1.40;;
20411;SDS011;10365;52.578;8.138;2023-03-14T08:52:43;3.72;;;1.23;;
20411;SDS011;10365;52.578;8.138;2023-03-14T08:55:09;3.00;;;1.42;;
20411;SDS011;10365;52.578;8.138;2023-03-14T08:57:34;5.13;;;1.50;;
20411;SDS011;10365;52.578;8.138;2023-03-14T09:00:01;3.47;;;1.10;;
20411;SDS011;10365;52.578;8.138;2023-03-14T09:02:30;7.05;;;1.48;;
20411;SDS011;10365;52.578;8.138;2023-03-14T09:04:55;3.95;;;1.13;;
20411;SDS011;10365;52.578;8.138;2023-03-14T09:07:20;4.95;;;1.40;;
20411;SDS011;10365;52.578;8.138;2023-03-14T09:09:46;2.65;;;1.52;;
20411;SDS011;10365;52.578;8.138;2023-03-14T09:12:11;3.92;;;1.17;;
20411;SDS011;10365;52.578;8.138;2023-03-14T09:14:37;2.85;;;1.50;;
20411;SDS011;10365;52.578;8.138;2023-03-14T09:17:02;4.90;;;1.60;;
20411;SDS011;10365;52.578;8.138;2023-03-14T09:19:28;4.05;;;1.30;;
20411;SDS011;10365;52.578;8.138;2023-03-14T09:21:53;5.68;;;1.48;;
20411;SDS011;10365;52.578;8.138;2023-03-14T09:24:19;3.70;;;1.65;;
20411;SDS011;10365;52.578;8.138;2023-03-14T09:26:44;6.38;;;1.33;;
20411;SDS011;10365;52.578;8.138;2023-03-14T09:29:09;2.10;;;1.02;;
20411;SDS011;10365;52.578;8.138;2023-03-14T09:31:35;1.90;;;0.88;;
20411;SDS011;10365;52.578;8.138;2023-03-14T09:34:00;0.57;;;0.20;;
20411;SDS011;10365;52.578;8.138;2023-03-14T09:36:26;0.70;;;0.30;;
20411;SDS011;10365;52.578;8.138;2023-03-14T09:38:51;1.17;;;0.20;;
20411;SDS011;10365;52.578;8.138;2023-03-14T09:41:33;1.08;;;0.20;;
20411;SDS011;10365;52.578;8.138;2023-03-14T09:44:04;0.98;;;0.40;;
20411;SDS011;10365;52.578;8.138;2023-03-14T09:46:30;7.70;;;0.60;;
20411;SDS011;10365;52.578;8.138;2023-03-14T09:48:56;1.10;;;0.50;;
20411;SDS011;10365;52.578;8.138;2023-03-14T09:51:22;3.53;;;0.40;;
20411;SDS011;10365;52.578;8.138;2023-03-14T09:53:49;3.13;;;0.28;;
20411;SDS011;10365;52.578;8.138;2023-03-14T09:56:27;0.38;;;0.30;;
20411;SDS011;10365;52.578;8.138;2023-03-14T09:59:00;5.45;;;0.30;;
20411;SDS011;10365;52.578;8.138;2023-03-14T10:01:32;2.05;;;0.20;;
20411;SDS011;10365;52.578;8.138;2023-03-14T10:04:02;1.05;;;0.40;;
20411;SDS011;10365;52.578;8.138;2023-03-14T10:06:29;2.40;;;0.40;;
20411;SDS011;10365;52.578;8.138;2023-03-14T10:08:55;2.70;;;0.30;;
20411;SDS011;10365;52.578;8.138;2023-03-14T10:11:22;1.98;;;0.20;;
20411;SDS011;10365;52.578;8.138;2023-03-14T10:14:09;0.65;;;0.10;;
20411;SDS011;10365;52.578;8.138;2023-03-14T10:16:34;1.48;;;0.30;;
20411;SDS011;10365;52.578;8.138;2023-03-14T10:19:04;1.67;;;0.25;;
20411;SDS011;10365;52.578;8.138;2023-03-14T10:21:30;0.28;;;0.10;;
20411;SDS011;10365;52.578;8.138;2023-03-14T10:26:43;0.20;;;0.10;;
20411;SDS011;10365;52.578;8.138;2023-03-14T10:29:12;0.25;;;0.20;;
20411;SDS011;10365;52.578;8.138;2023-03-14T10:31:45;0.75;;;0.10;;
20411;SDS011;10365;52.578;8.138;2023-03-14T10:34:13;0.25;;;0.10;;
20411;SDS011;10365;52.578;8.138;2023-03-14T10:36:40;0.10;;;0.10;;
20411;SDS011;10365;52.578;8.138;2023-03-14T10:41:40;1.25;;;0.20;;
20411;SDS011;10365;52.578;8.138;2023-03-14T10:44:05;0.22;;;0.05;;
20411;SDS011;10365;52.578;8.138;2023-03-14T10:46:33;1.02;;;0.32;;
20411;SDS011;10365;52.578;8.138;2023-03-14T10:49:34;2.05;;;0.22;;
20411;SDS011;10365;52.578;8.138;2023-03-14T10:54:34;1.85;;;0.32;;
20411;SDS011;10365;52.578;8.138;2023-03-14T10:57:00;1.15;;;0.30;;
20411;SDS011;10365;52.578;8.138;2023-03-14T10:59:27;7.13;;;0.30;;
20411;SDS011;10365;52.578;8.138;2023-03-14T11:01:55;1.83;;;0.40;;
20411;SDS011;10365;52.578;8.138;2023-03-14T11:04:25;3.85;;;0.47;;
20411;SDS011;10365;52.578;8.138;2023-03-14T11:14:41;2.35;;;0.60;;
20411;SDS011;10365;52.578;8.138;2023-03-14T11:19:51;4.88;;;0.75;;
20411;SDS011;10365;52.578;8.138;2023-03-14T11:22:36;3.67;;;0.55;;
20411;SDS011;10365;52.578;8.138;2023-03-14T11:27:52;5.63;;;0.75;;
20411;SDS011;10365;52.578;8.138;2023-03-14T11:37:53;9.75;;;1.05;;
20411;SDS011;10365;52.578;8.138;2023-03-14T11:40:20;6.20;;;0.90;;
20411;SDS011;10365;52.578;8.138;2023-03-14T11:42:49;11.45;;;1.05;;
20411;SDS011;10365;52.578;8.138;2023-03-14T11:45:32;11.00;;;1.30;;
20411;SDS011;10365;52.578;8.138;2023-03-14T11:50:43;9.27;;;0.80;;
20411;SDS011;10365;52.578;8.138;2023-03-14T11:53:10;9.38;;;1.13;;
20411;SDS011;10365;52.578;8.138;2023-03-14T11:55:37;8.75;;;1.17;;
20411;SDS011;10365;52.578;8.138;2023-03-14T12:00:49;10.10;;;1.25;;
20411;SDS011;10365;52.578;8.138;2023-03-14T12:13:38;14.10;;;1.20;;
20411;SDS011;10365;52.578;8.138;2023-03-14T12:16:05;14.20;;;1.55;;
20411;SDS011;10365;52.578;8.138;2023-03-14T12:18:32;16.58;;;2.33;;
20411;SDS011;10365;52.578;8.138;2023-03-14T12:21:17;16.83;;;2.33;;
20411;SDS011;10365;52.578;8.138;2023-03-14T12:26:18;22.90;;;1.90;;
20411;SDS011;10365;52.578;8.138;2023-03-14T12:29:29;13.20;;;2.00;;
20411;SDS011;10365;52.578;8.138;2023-03-14T12:31:44;13.77;;;1.50;;
20411;SDS011;10365;52.578;8.138;2023-03-14T12:39:10;16.42;;;1.98;;
20411;SDS011;10365;52.578;8.138;2023-03-14T12:41:43;15.98;;;3.08;;
20411;SDS011;10365;52.578;8.138;2023-03-14T12:46:53;19.30;;;2.40;;
20411;SDS011;10365;52.578;8.138;2023-03-14T12:49:18;14.50;;;1.55;;
20411;SDS011;10365;52.578;8.138;2023-03-14T12:51:44;10.77;;;1.48;;
20411;SDS011;10365;52.578;8.138;2023-03-14T13:01:53;11.77;;;1.50;;
20411;SDS011;10365;52.578;8.138;2023-03-14T13:04:19;21.80;;;1.83;;
20411;SDS011;10365;52.578;8.138;2023-03-14T13:06:55;8.98;;;1.40;;
20411;SDS011;10365;52.578;8.138;2023-03-14T13:12:09;14.15;;;1.60;;
20411;SDS011;10365;52.578;8.138;2023-03-14T13:14:35;9.38;;;2.15;;
20411;SDS011;10365;52.578;8.138;2023-03-14T13:17:09;23.45;;;4.20;;
20411;SDS011;10365;52.578;8.138;2023-03-14T13:19:35;11.68;;;2.70;;
20411;SDS011;10365;52.578;8.138;2023-03-14T13:22:04;20.73;;;4.93;;
20411;SDS011;10365;52.578;8.138;2023-03-14T13:24:32;15.63;;;3.50;;
20411;SDS011;10365;52.578;8.138;2023-03-14T13:26:58;10.98;;;1.58;;
20411;SDS011;10365;52.578;8.138;2023-03-14T13:29:25;8.43;;;1.17;;
20411;SDS011;10365;52.578;8.138;2023-03-14T13:31:51;14.85;;;1.95;;
20411;SDS011;10365;52.578;8.138;2023-03-14T13:34:16;13.95;;;1.75;;
20411;SDS011;10365;52.578;8.138;2023-03-14T13:36:42;8.77;;;1.50;;
20411;SDS011;10365;52.578;8.138;2023-03-14T13:39:13;11.93;;;1.38;;
20411;SDS011;10365;52.578;8.138;2023-03-14T13:41:39;12.00;;;1.50;;
20411;SDS011;10365;52.578;8.138;2023-03-14T13:44:09;8.65;;;1.92;;
20411;SDS011;10365;52.578;8.138;2023-03-14T13:46:38;12.57;;;1.77;;
20411;SDS011;10365;52.578;8.138;2023-03-14T13:49:04;11.18;;;1.73;;
20411;SDS011;10365;52.578;8.138;2023-03-14T13:51:30;10.70;;;1.67;;
20411;SDS011;10365;52.578;8.138;2023-03-14T13:53:58;6.80;;;1.33;;
20411;SDS011;10365;52.578;8.138;2023-03-14T13:56:25;10.90;;;1.45;;
20411;SDS011;10365;52.578;8.138;2023-03-14T13:58:51;4.65;;;1.20;;
20411;SDS011;10365;52.578;8.138;2023-03-14T14:01:33;9.20;;;1.90;;
20411;SDS011;10365;52.578;8.138;2023-03-14T14:04:02;12.27;;;1.58;;
20411;SDS011;10365;52.578;8.138;2023-03-14T14:06:32;10.77;;;1.73;;
20411;SDS011;10365;52.578;8.138;2023-03-14T14:09:02;7.38;;;1.10;;
20411;SDS011;10365;52.578;8.138;2023-03-14T14:13:53;9.50;;;1.90;;
20411;SDS011;10365;52.578;8.138;2023-03-14T14:16:19;5.95;;;1.40;;
20411;SDS011;10365;52.578;8.138;2023-03-14T14:18:45;9.07;;;2.10;;
20411;SDS011;10365;52.578;8.138;2023-03-14T14:21:11;12.35;;;2.10;;
20411;SDS011;10365;52.578;8.138;2023-03-14T14:23:37;6.13;;;1.05;;
20411;SDS011;10365;52.578;8.138;2023-03-14T14:26:04;11.20;;;2.20;;
20411;SDS011;10365;52.578;8.138;2023-03-14T14:28:34;10.30;;;1.48;;
20411;SDS011;10365;52.578;8.138;2023-03-14T14:31:04;7.43;;;1.33;;
20411;SDS011;10365;52.578;8.138;2023-03-14T14:33:37;7.97;;;1.35;;
20411;SDS011;10365;52.578;8.138;2023-03-14T14:36:04;5.18;;;0.60;;
20411;SDS011;10365;52.578;8.138;2023-03-14T14:38:29;16.80;;;1.65;;
20411;SDS011;10365;52.578;8.138;2023-03-14T14:40:58;5.10;;;1.17;;
20411;SDS011;10365;52.578;8.138;2023-03-14T14:43:25;7.18;;;1.60;;
20411;SDS011;10365;52.578;8.138;2023-03-14T14:45:53;9.25;;;1.17;;
20411;SDS011;10365;52.578;8.138;2023-03-14T14:48:22;8.80;;;1.55;;
20411;SDS011;10365;52.578;8.138;2023-03-14T14:50:55;9.73;;;3.47;;
20411;SDS011;10365;52.578;8.138;2023-03-14T14:56:04;9.38;;;1.10;;
20411;SDS011;10365;52.578;8.138;2023-03-14T14:58:33;6.53;;;1.20;;
20411;SDS011;10365;52.578;8.138;2023-03-14T15:01:18;10.85;;;1.30;;
20411;SDS011;10365;52.578;8.138;2023-03-14T15:03:45;11.52;;;1.90;;
20411;SDS011;10365;52.578;8.138;2023-03-14T15:06:14;12.88;;;1.88;;
20411;SDS011;10365;52.578;8.138;2023-03-14T15:08:40;10.18;;;1.60;;
20411;SDS011;10365;52.578;8.138;2023-03-14T15:11:06;12.25;;;1.63;;
20411;SDS011;10365;52.578;8.138;2023-03-14T15:13:31;9.73;;;1.38;;
20411;SDS011;10365;52.578;8.138;2023-03-14T15:15:56;10.98;;;1.13;;
20411;SDS011;10365;52.578;8.138;2023-03-14T15:18:25;12.43;;;1.25;;
20411;SDS011;10365;52.578;8.138;2023-03-14T15:20:50;6.40;;;1.75;;
20411;SDS011;10365;52.578;8.138;2023-03-14T15:23:17;7.88;;;1.35;;
20411;SDS011;10365;52.578;8.138;2023-03-14T15:25:42;4.57;;;0.85;;
20411;SDS011;10365;52.578;8.138;2023-03-14T15:30:41;3.92;;;1.00;;
20411;SDS011;10365;52.578;8.138;2023-03-14T15:33:07;5.95;;;1.55;;
20411;SDS011;10365;52.578;8.138;2023-03-14T15:35:36;9.70;;;1.00;;
20411;SDS011;10365;52.578;8.138;2023-03-14T15:38:02;8.38;;;3.03;;
20411;SDS011;10365;52.578;8.138;2023-03-14T15:40:28;4.97;;;0.90;;
20411;SDS011;10365;52.578;8.138;2023-03-14T15:42:53;9.50;;;2.20;;
20411;SDS011;10365;52.578;8.138;2023-03-14T15:45:19;12.95;;;2.08;;
20411;SDS011;10365;52.578;8.138;2023-03-14T15:47:44;7.07;;;2.05;;
20411;SDS011;10365;52.578;8.138;2023-03-14T15:50:10;10.63;;;2.38;;
20411;SDS011;10365;52.578;8.138;2023-03-14T15:52:36;6.18;;;0.95;;
20411;SDS011;10365;52.578;8.138;2023-03-14T15:55:01;6.43;;;1.52;;
20411;SDS011;10365;52.578;8.138;2023-03-14T15:57:27;7.70;;;1.52;;
20411;SDS011;10365;52.578;8.138;2023-03-14T15:59:52;7.43;;;1.48;;
20411;SDS011;10365;52.578;8.138;2023-03-14T16:02:23;11.55;;;1.10;;
20411;SDS011;10365;52.578;8.138;2023-03-14T16:04:55;8.93;;;1.00;;
20411;SDS011;10365;52.578;8.138;2023-03-14T16:07:23;4.78;;;0.65;;
20411;SDS011;10365;52.578;8.138;2023-03-14T16:09:57;5.60;;;0.75;;
20411;SDS011;10365;52.578;8.138;2023-03-14T16:12:33;4.38;;;0.60;;
20411;SDS011;10365;52.578;8.138;2023-03-14T16:15:13;4.03;;;0.80;;
20411;SDS011;10365;52.578;8.138;2023-03-14T16:17:46;6.43;;;0.80;;
20411;SDS011;10365;52.578;8.138;2023-03-14T16:20:26;6.38;;;1.00;;
20411;SDS011;10365;52.578;8.138;2023-03-14T16:23:09;4.47;;;0.88;;
20411;SDS011;10365;52.578;8.138;2023-03-14T16:25:37;6.65;;;1.10;;
20411;SDS011;10365;52.578;8.138;2023-03-14T16:28:10;7.78;;;0.70;;
20411;SDS011;10365;52.578;8.138;2023-03-14T16:30:41;2.22;;;0.40;;
20411;SDS011;10365;52.578;8.138;2023-03-14T16:33:17;11.27;;;1.60;;
20411;SDS011;10365;52.578;8.138;2023-03-14T16:38:31;20.17;;;6.75;;
20411;SDS011;10365;52.578;8.138;2023-03-14T16:43:36;14.75;;;4.28;;
20411;SDS011;10365;52.578;8.138;2023-03-14T16:46:10;13.95;;;3.90;;
20411;SDS011;10365;52.578;8.138;2023-03-14T16:48:47;10.77;;;2.05;;
20411;SDS011;10365;52.578;8.138;2023-03-14T16:51:24;3.25;;;0.60;;
20411;SDS011;10365;52.578;8.138;2023-03-14T16:53:52;9.38;;;3.03;;
20411;SDS011;10365;52.578;8.138;2023-03-14T16:56:21;8.57;;;1.50;;
20411;SDS011;10365;52.578;8.138;2023-03-14T16:58:58;9.57;;;1.20;;
20411;SDS011;10365;52.578;8.138;2023-03-14T17:01:27;7.90;;;1.05;;